createdAt,value
2019-03-22T00:00:18.897Z,6.60
2019-03-22T00:02:47.469Z,6.50
2019-03-22T00:05:16.066Z,6.50
2019-03-22T00:07:44.531Z,6.40
2019-03-22T00:10:13.076Z,6.50
2019-03-22T00:12:41.596Z,6.60
2019-03-22T00:15:10.673Z,6.60
2019-03-22T00:17:39.401Z,6.60
2019-03-22T00:20:08.510Z,6.50
2019-03-22T00:22:37.005Z,6.50
2019-03-22T00:25:07.529Z,6.40
2019-03-22T00:27:35.994Z,6.40
2019-03-22T00:30:08.819Z,6.50
2019-03-22T00:32:37.272Z,6.60
2019-03-22T00:35:07.513Z,6.60
2019-03-22T00:37:36.034Z,6.60
2019-03-22T00:40:06.596Z,6.60
2019-03-22T00:42:35.074Z,6.60
2019-03-22T00:45:05.630Z,6.50
2019-03-22T00:47:34.114Z,6.50
2019-03-22T00:50:03.713Z,6.50
2019-03-22T00:52:32.242Z,6.40
2019-03-22T00:55:00.803Z,6.40
2019-03-22T00:57:29.334Z,6.40
2019-03-22T00:59:58.130Z,6.30
2019-03-22T01:02:26.595Z,6.30
2019-03-22T01:04:55.047Z,6.30
2019-03-22T01:07:23.532Z,6.20
2019-03-22T01:09:51.987Z,6.20
2019-03-22T01:12:21.131Z,6.20
2019-03-22T01:14:49.605Z,6.20
2019-03-22T01:17:18.106Z,6.20
2019-03-22T01:19:46.562Z,6.10
2019-03-22T01:22:15.038Z,6.10
2019-03-22T01:24:43.529Z,6.10
2019-03-22T01:27:11.993Z,6.00
2019-03-22T01:29:40.450Z,6.00
2019-03-22T01:32:09.003Z,5.90
2019-03-22T01:34:37.469Z,5.90
2019-03-22T01:37:06.046Z,5.90
2019-03-22T01:39:34.571Z,5.80
2019-03-22T01:42:03.507Z,5.80
2019-03-22T01:44:32.004Z,5.80
2019-03-22T01:47:00.468Z,5.70
2019-03-22T01:49:28.922Z,5.70
2019-03-22T01:51:57.471Z,5.70
2019-03-22T01:54:25.940Z,5.70
2019-03-22T01:56:54.456Z,5.70
2019-03-22T01:59:22.990Z,5.60
2019-03-22T02:01:51.445Z,5.60
2019-03-22T02:04:19.978Z,5.60
2019-03-22T02:06:48.528Z,5.60
2019-03-22T02:09:17.097Z,5.60
2019-03-22T02:11:45.906Z,5.50
2019-03-22T02:14:14.363Z,5.50
2019-03-22T02:16:43.119Z,5.50
2019-03-22T02:19:11.668Z,5.40
2019-03-22T02:21:41.325Z,5.40
2019-03-22T02:24:09.801Z,5.40
2019-03-22T02:26:38.302Z,5.30
2019-03-22T02:29:07.844Z,5.30
2019-03-22T02:31:36.310Z,5.30
2019-03-22T02:34:04.945Z,5.20
2019-03-22T02:36:33.436Z,5.20
2019-03-22T02:39:02.232Z,5.10
2019-03-22T02:41:30.769Z,5.00
2019-03-22T02:43:59.227Z,4.90
2019-03-22T02:46:27.777Z,5.00
2019-03-22T02:48:56.309Z,5.20
2019-03-22T02:51:24.810Z,5.20
2019-03-22T02:53:53.359Z,5.30
2019-03-22T02:56:22.241Z,5.10
2019-03-22T02:58:51.229Z,5.00
2019-03-22T03:01:19.719Z,4.90
2019-03-22T03:03:48.234Z,4.70
2019-03-22T03:06:16.816Z,4.80
2019-03-22T03:08:45.364Z,4.90
2019-03-22T03:11:13.850Z,4.80
2019-03-22T03:13:42.319Z,4.70
2019-03-22T03:16:10.922Z,4.60
2019-03-22T03:18:39.410Z,4.50
2019-03-22T03:21:07.948Z,4.60
2019-03-22T03:23:36.435Z,4.60
2019-03-22T03:26:05.058Z,4.50
2019-03-22T03:28:37.062Z,4.50
2019-03-22T03:31:03.895Z,4.50
2019-03-22T03:33:32.413Z,4.60
2019-03-22T03:36:00.975Z,4.60
2019-03-22T03:38:29.507Z,4.60
2019-03-22T03:40:58.068Z,4.70
2019-03-22T03:43:26.947Z,4.80
2019-03-22T03:45:55.760Z,4.80
2019-03-22T03:48:24.349Z,4.90
2019-03-22T03:50:52.905Z,5.00
2019-03-22T03:53:21.383Z,5.00
2019-03-22T03:55:49.901Z,4.90
2019-03-22T03:58:18.446Z,5.00
2019-03-22T04:00:46.983Z,4.90
2019-03-22T04:03:15.465Z,4.90
2019-03-22T04:05:44.382Z,4.80
2019-03-22T04:08:12.844Z,4.70
2019-03-22T04:10:41.383Z,4.70
2019-03-22T04:13:09.912Z,4.70
2019-03-22T04:15:38.537Z,4.70
2019-03-22T04:18:07.034Z,4.70
2019-03-22T04:20:35.581Z,4.60
2019-03-22T04:23:04.269Z,4.50
2019-03-22T04:25:32.842Z,4.50
2019-03-22T04:28:01.398Z,4.40
2019-03-22T04:30:30.157Z,4.30
2019-03-22T04:32:58.772Z,4.40
2019-03-22T04:35:27.301Z,4.30
2019-03-22T04:37:55.801Z,4.20
2019-03-22T04:40:29.358Z,4.20
2019-03-22T04:42:58.464Z,4.00
2019-03-22T04:45:30.341Z,4.00
2019-03-22T04:48:19.447Z,4.00
2019-03-22T04:50:49.282Z,4.00
2019-03-22T04:53:22.094Z,4.00
2019-03-22T04:55:53.963Z,4.10
2019-03-22T04:58:24.532Z,4.10
2019-03-22T05:00:54.975Z,4.10
2019-03-22T05:03:25.546Z,4.10
2019-03-22T05:05:57.375Z,4.10
2019-03-22T05:08:27.448Z,4.20
2019-03-22T05:10:57.986Z,4.10
2019-03-22T05:13:29.180Z,4.20
2019-03-22T05:15:58.295Z,4.20
2019-03-22T05:18:29.242Z,4.00
2019-03-22T05:20:58.848Z,3.90
2019-03-22T05:23:28.561Z,3.90
2019-03-22T05:25:59.909Z,3.90
2019-03-22T05:28:30.708Z,3.90
2019-03-22T05:31:05.129Z,3.90
2019-03-22T05:33:33.617Z,3.90
2019-03-22T05:36:02.160Z,3.90
2019-03-22T05:38:31.076Z,3.80
2019-03-22T05:40:59.577Z,3.80
2019-03-22T05:43:28.076Z,3.90
2019-03-22T05:45:56.653Z,3.80
2019-03-22T05:48:25.152Z,3.90
2019-03-22T05:50:53.693Z,4.10
2019-03-22T05:53:22.239Z,4.00
2019-03-22T05:55:50.795Z,4.00
2019-03-22T05:58:19.286Z,4.00
2019-03-22T06:00:47.798Z,3.90
2019-03-22T06:03:16.262Z,4.10
2019-03-22T06:05:44.746Z,4.30
2019-03-22T06:08:13.399Z,4.60
2019-03-22T06:10:41.849Z,4.90
2019-03-22T06:13:10.337Z,4.80
2019-03-22T06:15:39.314Z,5.10
2019-03-22T06:18:07.777Z,5.10
2019-03-22T06:20:36.249Z,5.10
2019-03-22T06:23:04.906Z,4.90
2019-03-22T06:25:33.370Z,5.00
2019-03-22T06:28:01.941Z,5.10
2019-03-22T06:30:31.639Z,5.20
2019-03-22T06:33:00.160Z,5.30
2019-03-22T06:35:28.681Z,5.20
2019-03-22T06:37:57.247Z,5.20
2019-03-22T06:40:25.713Z,5.40
2019-03-22T06:42:54.499Z,5.60
2019-03-22T06:45:23.077Z,5.50
2019-03-22T06:47:51.607Z,5.50
2019-03-22T06:50:20.107Z,5.70
2019-03-22T06:52:48.655Z,5.80
2019-03-22T06:55:17.123Z,6.00
2019-03-22T06:57:45.611Z,6.10
2019-03-22T07:00:14.213Z,6.10
2019-03-22T07:02:42.781Z,6.00
2019-03-22T07:05:13.478Z,6.10
2019-03-22T07:07:41.661Z,6.10
2019-03-22T07:10:11.487Z,6.40
2019-03-22T07:12:40.029Z,6.10
2019-03-22T07:15:08.885Z,5.50
2019-03-22T07:17:37.486Z,5.20
2019-03-22T07:20:07.400Z,5.20
2019-03-22T07:22:36.243Z,5.10
2019-03-22T07:25:07.286Z,5.00
2019-03-22T07:27:35.749Z,5.10
2019-03-22T07:30:17.917Z,5.20
2019-03-22T07:32:37.310Z,5.30
2019-03-22T07:35:06.521Z,5.40
2019-03-22T07:37:34.974Z,5.30
2019-03-22T07:40:05.552Z,5.40
2019-03-22T07:42:34.119Z,5.60
2019-03-22T07:45:02.591Z,5.80
2019-03-22T07:47:31.102Z,5.70
2019-03-22T07:49:59.558Z,5.90
2019-03-22T07:52:28.030Z,6.00
2019-03-22T07:54:56.546Z,5.90
2019-03-22T07:57:25.010Z,5.90
2019-03-22T07:59:53.799Z,6.30
2019-03-22T08:02:22.303Z,6.10
2019-03-22T08:04:50.857Z,6.10
2019-03-22T08:07:19.360Z,6.50
2019-03-22T08:09:51.051Z,6.80
2019-03-22T08:12:19.483Z,6.70
2019-03-22T08:14:48.397Z,6.60
2019-03-22T08:17:16.934Z,6.60
2019-03-22T08:19:45.437Z,7.00
2019-03-22T08:22:14.022Z,7.10
2019-03-22T08:24:42.614Z,7.40
2019-03-22T08:27:11.185Z,7.80
2019-03-22T08:29:39.686Z,8.20
2019-03-22T08:32:08.310Z,8.40
2019-03-22T08:34:36.855Z,8.80
2019-03-22T08:37:05.416Z,9.10
2019-03-22T08:39:33.980Z,9.40
2019-03-22T08:42:02.588Z,9.80
2019-03-22T08:44:31.171Z,10.00
2019-03-22T08:46:59.736Z,10.70
2019-03-22T08:49:28.423Z,10.90
2019-03-22T08:51:56.954Z,11.10
2019-03-22T08:54:25.476Z,11.20
2019-03-22T08:56:54.001Z,11.30
2019-03-22T08:59:22.525Z,11.30
2019-03-22T09:01:50.999Z,10.90
2019-03-22T09:04:19.519Z,10.70
2019-03-22T09:06:48.094Z,10.80
2019-03-22T09:09:16.661Z,11.20
2019-03-22T09:11:45.243Z,11.90
2019-03-22T09:14:14.126Z,12.30
2019-03-22T09:16:42.712Z,12.50
2019-03-22T09:19:11.311Z,12.60
2019-03-22T09:21:39.840Z,12.50
2019-03-22T09:24:08.327Z,12.60
2019-03-22T09:26:47.207Z,13.30
2019-03-22T09:29:07.084Z,13.40
2019-03-22T09:31:35.677Z,13.80
2019-03-22T09:34:04.197Z,14.40
2019-03-22T09:36:32.815Z,15.10
2019-03-22T09:39:02.281Z,15.70
2019-03-22T09:41:30.833Z,16.30
2019-03-22T09:43:59.364Z,16.60
2019-03-22T09:46:27.887Z,16.60
2019-03-22T09:48:56.520Z,16.60
2019-03-22T09:51:25.090Z,16.20
2019-03-22T09:53:53.585Z,16.40
2019-03-22T09:56:22.259Z,15.50
2019-03-22T09:58:51.636Z,16.00
2019-03-22T10:01:24.044Z,16.50
2019-03-22T10:03:50.396Z,16.80
2019-03-22T10:06:18.931Z,17.10
2019-03-22T10:08:47.516Z,16.70
2019-03-22T10:11:16.063Z,17.10
2019-03-22T10:13:44.620Z,17.30
2019-03-22T10:16:13.177Z,16.60
2019-03-22T10:18:41.763Z,16.50
2019-03-22T10:21:21.936Z,17.10
2019-03-22T10:23:42.424Z,17.40
2019-03-22T10:26:10.702Z,17.60
2019-03-22T10:28:39.252Z,17.90
2019-03-22T10:31:07.741Z,18.30
2019-03-22T10:33:36.683Z,18.80
2019-03-22T10:36:05.908Z,19.00
2019-03-22T10:38:34.489Z,18.80
2019-03-22T10:41:03.065Z,18.50
2019-03-22T10:43:31.559Z,18.80
2019-03-22T10:46:00.490Z,18.10
2019-03-22T10:48:28.990Z,17.80
2019-03-22T10:50:57.507Z,18.30
2019-03-22T10:53:26.147Z,18.20
2019-03-22T10:55:54.695Z,18.70
2019-03-22T10:58:23.743Z,18.90
2019-03-22T11:00:52.371Z,19.20
2019-03-22T11:03:20.857Z,19.40
2019-03-22T11:05:49.696Z,19.70
2019-03-22T11:08:18.238Z,19.90
2019-03-22T11:10:46.769Z,19.50
2019-03-22T11:13:15.273Z,19.50
2019-03-22T11:15:48.381Z,19.60
2019-03-22T11:18:13.963Z,20.00
2019-03-22T11:20:42.461Z,19.80
2019-03-22T11:23:10.965Z,19.20
2019-03-22T11:25:39.454Z,19.60
2019-03-22T11:28:08.024Z,19.20
2019-03-22T11:30:36.593Z,19.90
2019-03-22T11:33:05.310Z,20.30
2019-03-22T11:35:33.975Z,20.60
2019-03-22T11:38:02.526Z,20.40
2019-03-22T11:40:33.203Z,19.90
2019-03-22T11:43:08.497Z,20.00
2019-03-22T11:45:31.906Z,20.70
2019-03-22T11:48:00.614Z,21.60
2019-03-22T11:50:29.403Z,22.10
2019-03-22T11:52:59.543Z,22.20
2019-03-22T11:55:28.068Z,22.50
2019-03-22T11:57:56.555Z,22.40
2019-03-22T12:00:26.174Z,22.00
2019-03-22T12:02:54.804Z,21.50
2019-03-22T12:05:23.623Z,20.70
2019-03-22T12:07:52.163Z,21.20
2019-03-22T12:10:21.291Z,21.80
2019-03-22T12:12:49.908Z,22.30
2019-03-22T12:15:20.962Z,22.40
2019-03-22T12:17:49.615Z,21.80
2019-03-22T12:20:23.812Z,21.50
2019-03-22T12:22:52.915Z,20.80
2019-03-22T12:25:26.005Z,20.50
2019-03-22T12:27:54.574Z,20.70
2019-03-22T12:30:23.097Z,20.70
2019-03-22T12:32:51.742Z,21.30
2019-03-22T12:35:20.371Z,21.70
2019-03-22T12:37:49.253Z,21.90
2019-03-22T12:40:22.552Z,21.70
2019-03-22T12:42:51.196Z,21.50
2019-03-22T12:45:27.831Z,21.30
2019-03-22T12:47:56.582Z,20.90
2019-03-22T12:50:26.982Z,20.70
2019-03-22T12:52:55.765Z,20.70
2019-03-22T12:55:24.401Z,20.80
2019-03-22T12:57:52.985Z,21.20
2019-03-22T13:00:25.079Z,21.50
2019-03-22T13:02:53.836Z,21.90
2019-03-22T13:05:22.640Z,21.60
2019-03-22T13:07:51.913Z,21.40
2019-03-22T13:10:24.556Z,21.50
2019-03-22T13:12:53.140Z,21.10
2019-03-22T13:15:21.762Z,21.60
2019-03-22T13:17:50.279Z,21.80
2019-03-22T13:20:19.041Z,22.00
2019-03-22T13:22:47.925Z,21.90
2019-03-22T13:25:17.770Z,21.80
2019-03-22T13:27:46.410Z,21.90
2019-03-22T13:30:35.547Z,21.80
2019-03-22T13:33:04.806Z,21.90
2019-03-22T13:35:33.358Z,22.00
2019-03-22T13:38:01.889Z,21.70
2019-03-22T13:40:30.438Z,21.60
2019-03-22T13:42:59.092Z,21.60
2019-03-22T13:45:27.706Z,21.50
2019-03-22T13:47:56.365Z,21.50
2019-03-22T13:50:25.365Z,21.70
2019-03-22T13:52:53.885Z,21.30
2019-03-22T13:55:22.456Z,20.90
2019-03-22T13:57:50.938Z,20.70
2019-03-22T14:00:20.071Z,20.80
2019-03-22T14:02:48.624Z,20.10
2019-03-22T14:05:17.251Z,20.20
2019-03-22T14:07:45.753Z,20.50
2019-03-22T14:10:31.837Z,20.90
2019-03-22T14:13:01.709Z,20.90
2019-03-22T14:15:30.538Z,20.90
2019-03-22T14:17:59.228Z,20.70
2019-03-22T14:20:27.850Z,20.80
2019-03-22T14:22:56.313Z,20.80
2019-03-22T14:25:24.805Z,20.80
2019-03-22T14:27:53.993Z,20.80
2019-03-22T14:30:22.494Z,21.10
2019-03-22T14:32:51.047Z,21.20
2019-03-22T14:35:19.586Z,20.70
2019-03-22T14:37:48.066Z,20.60
2019-03-22T14:40:16.713Z,20.50
2019-03-22T14:42:45.204Z,20.50
2019-03-22T14:45:13.824Z,20.40
2019-03-22T14:47:42.304Z,20.70
2019-03-22T14:50:11.517Z,20.80
2019-03-22T14:52:40.116Z,20.60
2019-03-22T14:55:08.697Z,20.50
2019-03-22T14:57:47.815Z,20.60
2019-03-22T15:00:09.842Z,21.00
2019-03-22T15:02:38.415Z,21.20
2019-03-22T15:05:07.342Z,21.10
2019-03-22T15:07:35.840Z,20.90
2019-03-22T15:10:07.275Z,20.70
2019-03-22T15:12:35.787Z,20.80
2019-03-22T15:15:25.554Z,20.70
2019-03-22T15:18:01.787Z,20.60
2019-03-22T15:20:31.925Z,20.50
2019-03-22T15:23:09.870Z,20.50
2019-03-22T15:25:55.907Z,20.50
2019-03-22T15:28:28.729Z,20.20
2019-03-22T15:31:11.034Z,19.80
2019-03-22T15:33:54.646Z,19.70
2019-03-22T15:36:44.585Z,19.80
2019-03-22T15:39:17.524Z,19.80
2019-03-22T15:41:46.143Z,19.70
2019-03-22T15:44:14.889Z,19.60
2019-03-22T15:46:43.499Z,19.40
2019-03-22T15:49:12.064Z,18.90
2019-03-22T15:51:40.584Z,18.60
2019-03-22T15:54:09.139Z,18.50
2019-03-22T15:56:37.749Z,18.30
2019-03-22T15:59:06.308Z,18.40
2019-03-22T16:01:35.846Z,18.40
2019-03-22T16:04:04.489Z,18.30
2019-03-22T16:06:32.956Z,18.30
2019-03-22T16:09:01.440Z,18.20
2019-03-22T16:11:30.012Z,18.10
2019-03-22T16:13:58.477Z,18.00
2019-03-22T16:16:26.965Z,18.00
2019-03-22T16:18:55.465Z,17.80
2019-03-22T16:21:24.057Z,17.70
2019-03-22T16:23:52.537Z,17.60
2019-03-22T16:26:21.067Z,17.50
2019-03-22T16:28:49.576Z,17.40
2019-03-22T16:31:18.126Z,17.40
2019-03-22T16:33:54.034Z,17.20
2019-03-22T16:36:16.913Z,17.10
2019-03-22T16:38:45.436Z,16.90
2019-03-22T16:41:13.996Z,16.90
2019-03-22T16:43:42.652Z,16.90
2019-03-22T16:46:11.199Z,16.90
2019-03-22T16:48:39.858Z,16.80
2019-03-22T16:51:08.431Z,16.70
2019-03-22T16:53:37.026Z,16.70
2019-03-22T16:56:05.691Z,16.70
2019-03-22T16:58:34.326Z,16.70
2019-03-22T17:01:02.924Z,16.50
2019-03-22T17:03:31.513Z,16.60
2019-03-22T17:06:00.436Z,16.50
2019-03-22T17:08:28.902Z,16.50
2019-03-22T17:10:57.428Z,16.40
2019-03-22T17:13:25.901Z,16.40
2019-03-22T17:15:54.393Z,16.30
2019-03-22T17:18:23.000Z,16.30
2019-03-22T17:20:51.563Z,16.30
2019-03-22T17:23:20.170Z,16.30
2019-03-22T17:25:48.661Z,16.30
2019-03-22T17:28:17.263Z,16.20
2019-03-22T17:30:45.755Z,16.10
2019-03-22T17:33:14.273Z,16.00
2019-03-22T17:35:42.881Z,15.90
2019-03-22T17:38:11.549Z,15.80
2019-03-22T17:40:40.213Z,15.60
2019-03-22T17:43:08.718Z,15.50
2019-03-22T17:45:37.265Z,15.40
2019-03-22T17:48:05.841Z,15.50
2019-03-22T17:50:34.381Z,15.60
2019-03-22T17:53:02.872Z,15.60
2019-03-22T17:55:31.347Z,15.50
2019-03-22T17:57:59.845Z,15.40
2019-03-22T18:00:29.238Z,15.40
2019-03-22T18:02:57.717Z,15.50
2019-03-22T18:05:26.192Z,15.40
2019-03-22T18:07:54.676Z,15.50
2019-03-22T18:10:23.237Z,15.30
2019-03-22T18:12:51.717Z,15.20
2019-03-22T18:15:20.513Z,15.10
2019-03-22T18:17:49.023Z,14.90
2019-03-22T18:20:17.633Z,14.60
2019-03-22T18:22:46.200Z,14.10
2019-03-22T18:25:15.793Z,13.80
2019-03-22T18:27:44.378Z,13.40
2019-03-22T18:30:14.540Z,13.10
2019-03-22T18:32:43.011Z,12.70
2019-03-22T18:35:12.173Z,12.50
2019-03-22T18:37:40.675Z,12.40
2019-03-22T18:40:15.187Z,12.30
2019-03-22T18:42:44.152Z,12.20
2019-03-22T18:45:13.666Z,12.10
2019-03-22T18:47:42.898Z,11.90
2019-03-22T18:50:12.336Z,12.00
2019-03-22T18:52:40.898Z,11.90
2019-03-22T18:55:10.104Z,11.70
2019-03-22T18:57:38.593Z,11.50
2019-03-22T19:00:09.278Z,11.40
2019-03-22T19:02:37.881Z,11.30
2019-03-22T19:05:08.113Z,11.30
2019-03-22T19:07:36.607Z,11.10
2019-03-22T19:10:08.160Z,11.00
2019-03-22T19:12:36.634Z,11.00
2019-03-22T19:15:07.854Z,10.90
2019-03-22T19:17:36.601Z,10.70
2019-03-22T19:20:07.904Z,10.70
2019-03-22T19:22:36.462Z,10.60
2019-03-22T19:25:06.794Z,10.50
2019-03-22T19:27:35.727Z,10.40
2019-03-22T19:30:09.994Z,10.40
2019-03-22T19:32:38.476Z,10.30
2019-03-22T19:35:08.872Z,10.10
2019-03-22T19:37:37.432Z,10.00
2019-03-22T19:40:13.785Z,9.90
2019-03-22T19:42:42.409Z,9.80
2019-03-22T19:45:13.455Z,9.80
2019-03-22T19:47:42.089Z,9.70
2019-03-22T19:50:12.980Z,9.60
2019-03-22T19:52:42.911Z,9.60
2019-03-22T19:55:12.274Z,9.60
2019-03-22T19:57:40.742Z,9.60
2019-03-22T20:00:17.232Z,9.70
2019-03-22T20:02:45.821Z,9.70
2019-03-22T20:05:17.384Z,9.60
2019-03-22T20:07:46.143Z,9.60
2019-03-22T20:10:14.736Z,9.50
2019-03-22T20:12:43.277Z,9.40
2019-03-22T20:15:11.879Z,9.30
2019-03-22T20:17:40.340Z,9.30
2019-03-22T20:20:09.734Z,9.20
2019-03-22T20:22:38.290Z,9.10
2019-03-22T20:25:08.437Z,8.90
2019-03-22T20:27:37.330Z,8.90
2019-03-22T20:30:08.254Z,9.00
2019-03-22T20:32:36.797Z,8.90
2019-03-22T20:35:16.196Z,8.90
2019-03-22T20:37:39.898Z,8.80
2019-03-22T20:40:11.520Z,8.80
2019-03-22T20:42:40.060Z,8.70
2019-03-22T20:45:09.083Z,8.70
2019-03-22T20:47:37.632Z,8.60
2019-03-22T20:50:07.928Z,8.70
2019-03-22T20:52:36.415Z,8.60
2019-03-22T20:55:09.670Z,8.50
2019-03-22T20:57:38.329Z,8.40
2019-03-22T21:00:12.974Z,8.40
2019-03-22T21:02:41.471Z,8.30
2019-03-22T21:05:12.531Z,8.20
2019-03-22T21:07:41.008Z,8.10
2019-03-22T21:10:10.873Z,8.10
2019-03-22T21:12:39.562Z,8.20
2019-03-22T21:15:10.777Z,8.20
2019-03-22T21:17:40.727Z,8.20
2019-03-22T21:20:11.307Z,8.30
2019-03-22T21:22:39.847Z,8.30
2019-03-22T21:25:09.843Z,8.30
2019-03-22T21:27:38.319Z,8.30
2019-03-22T21:30:08.749Z,8.30
2019-03-22T21:32:45.144Z,8.30
2019-03-22T21:35:08.422Z,8.30
2019-03-22T21:37:37.415Z,8.20
2019-03-22T21:40:07.637Z,8.20
2019-03-22T21:42:36.134Z,8.30
2019-03-22T21:45:06.392Z,8.30
2019-03-22T21:47:35.861Z,8.40
2019-03-22T21:50:06.891Z,8.40
2019-03-22T21:52:35.606Z,8.30
2019-03-22T21:55:05.025Z,8.40
2019-03-22T21:57:33.484Z,8.30
2019-03-22T22:00:01.981Z,8.40
2019-03-22T22:02:30.505Z,8.40
2019-03-22T22:04:58.958Z,8.40
2019-03-22T22:07:27.434Z,8.40
2019-03-22T22:09:55.904Z,8.40
2019-03-22T22:12:24.659Z,8.60
2019-03-22T22:14:53.191Z,8.60
2019-03-22T22:17:21.647Z,8.40
2019-03-22T22:19:50.117Z,8.50
2019-03-22T22:22:18.646Z,8.70
2019-03-22T22:24:47.193Z,8.80
2019-03-22T22:27:15.826Z,8.80
2019-03-22T22:29:44.319Z,8.80
2019-03-22T22:32:12.789Z,8.90
2019-03-22T22:34:41.242Z,8.90
2019-03-22T22:37:09.740Z,8.80
2019-03-22T22:39:38.207Z,8.80
2019-03-22T22:42:06.740Z,8.60
2019-03-22T22:44:35.199Z,8.50
2019-03-22T22:47:03.658Z,8.60
2019-03-22T22:49:32.135Z,8.50
2019-03-22T22:52:00.592Z,8.80
2019-03-22T22:54:29.047Z,8.80
2019-03-22T22:56:57.513Z,8.80
2019-03-22T22:59:25.977Z,8.70
2019-03-22T23:01:54.458Z,8.70
2019-03-22T23:04:22.915Z,8.60
2019-03-22T23:06:51.439Z,8.70
2019-03-22T23:09:20.395Z,8.70
2019-03-22T23:11:48.919Z,8.90
2019-03-22T23:14:17.407Z,9.00
2019-03-22T23:16:45.861Z,8.80
2019-03-22T23:19:14.314Z,8.60
2019-03-22T23:21:42.795Z,8.60
2019-03-22T23:24:11.244Z,8.70
2019-03-22T23:26:39.727Z,8.70
2019-03-22T23:29:08.189Z,8.80
2019-03-22T23:31:36.641Z,8.90
2019-03-22T23:34:05.172Z,8.80
2019-03-22T23:36:33.630Z,8.70
2019-03-22T23:39:02.177Z,8.70
2019-03-22T23:41:30.637Z,8.80
2019-03-22T23:43:59.094Z,8.70
2019-03-22T23:46:27.890Z,8.80
2019-03-22T23:48:56.342Z,9.00
2019-03-22T23:51:24.885Z,8.90
2019-03-22T23:53:53.327Z,8.90
2019-03-22T23:56:21.790Z,9.20
2019-03-22T23:58:50.276Z,9.10
